sensor_id;sensor_type;location;lat;lon;timestamp;pressure;altitude;pressure_sealevel;temperature;humidity
47220;BME280;32961;51.936;4.788;2023-05-01T00:02:20;101792.56;;;12.28;69.65
47220;BME280;32961;51.936;4.788;2023-05-01T00:04:48;101786.25;;;12.28;69.89
47220;BME280;32961;51.936;4.788;2023-05-01T00:07:16;101780.94;;;12.26;70.03
47220;BME280;32961;51.936;4.788;2023-05-01T00:09:44;101785.66;;;12.24;70.59
47220;BME280;32961;51.936;4.788;2023-05-01T00:12:12;101778.00;;;12.18;71.09
47220;BME280;32961;51.936;4.788;2023-05-01T00:14:39;101771.81;;;12.16;70.79
47220;BME280;32961;51.936;4.788;2023-05-01T00:17:09;101773.09;;;12.12;71.27
47220;BME280;32961;51.936;4.788;2023-05-01T00:19:36;101772.09;;;12.13;71.31
47220;BME280;32961;51.936;4.788;2023-05-01T00:22:04;101768.63;;;12.11;71.43
47220;BME280;32961;51.936;4.788;2023-05-01T00:24:32;101761.47;;;12.10;71.56
47220;BME280;32961;51.936;4.788;2023-05-01T00:27:00;101756.28;;;12.07;71.50
47220;BME280;32961;51.936;4.788;2023-05-01T00:29:28;101754.56;;;12.06;71.84
47220;BME280;32961;51.936;4.788;2023-05-01T00:31:56;101751.22;;;12.02;71.53
47220;BME280;32961;51.936;4.788;2023-05-01T00:34:25;101750.34;;;12.01;71.69
47220;BME280;32961;51.936;4.788;2023-05-01T00:36:53;101752.47;;;11.98;71.87
47220;BME280;32961;51.936;4.788;2023-05-01T00:39:21;101740.94;;;11.94;71.99
47220;BME280;32961;51.936;4.788;2023-05-01T00:41:48;101743.09;;;11.91;72.05
47220;BME280;32961;51.936;4.788;2023-05-01T00:44:16;101737.75;;;11.89;72.03
47220;BME280;32961;51.936;4.788;2023-05-01T00:46:44;101738.03;;;11.86;71.38
47220;BME280;32961;51.936;4.788;2023-05-01T00:49:12;101734.31;;;11.87;72.16
47220;BME280;32961;51.936;4.788;2023-05-01T00:51:46;101729.88;;;11.86;72.20
47220;BME280;32961;51.936;4.788;2023-05-01T00:54:15;101731.84;;;11.84;72.29
47220;BME280;32961;51.936;4.788;2023-05-01T00:56:46;101723.94;;;11.81;72.82
47220;BME280;32961;51.936;4.788;2023-05-01T00:59:14;101706.50;;;11.72;73.23
47220;BME280;32961;51.936;4.788;2023-05-01T01:01:43;101722.22;;;11.80;73.25
47220;BME280;32961;51.936;4.788;2023-05-01T01:04:11;101718.00;;;11.76;73.44
47220;BME280;32961;51.936;4.788;2023-05-01T01:06:48;101716.28;;;11.75;73.32
47220;BME280;32961;51.936;4.788;2023-05-01T01:09:28;101704.59;;;11.63;73.93
47220;BME280;32961;51.936;4.788;2023-05-01T01:12:09;101707.66;;;11.69;74.07
47220;BME280;32961;51.936;4.788;2023-05-01T01:14:48;101696.75;;;11.69;74.05
47220;BME280;32961;51.936;4.788;2023-05-01T01:17:23;101699.47;;;11.69;74.43
47220;BME280;32961;51.936;4.788;2023-05-01T01:20:08;101656.91;;;11.47;74.06
47220;BME280;32961;51.936;4.788;2023-05-01T01:22:45;101681.69;;;11.65;74.51
47220;BME280;32961;51.936;4.788;2023-05-01T01:25:39;101679.09;;;11.64;74.69
47220;BME280;32961;51.936;4.788;2023-05-01T01:28:27;101679.22;;;11.62;74.55
47220;BME280;32961;51.936;4.788;2023-05-01T01:31:09;101676.50;;;11.62;74.59
47220;BME280;32961;51.936;4.788;2023-05-01T01:33:58;101673.16;;;11.59;74.77
47220;BME280;32961;51.936;4.788;2023-05-01T01:36:42;101664.16;;;11.58;75.45
47220;BME280;32961;51.936;4.788;2023-05-01T01:39:22;101662.28;;;11.59;75.14
47220;BME280;32961;51.936;4.788;2023-05-01T01:41:52;101656.13;;;11.56;75.17
47220;BME280;32961;51.936;4.788;2023-05-01T01:44:26;101653.50;;;11.55;75.29
47220;BME280;32961;51.936;4.788;2023-05-01T01:46:55;101646.75;;;11.49;76.54
47220;BME280;32961;51.936;4.788;2023-05-01T01:49:27;101651.84;;;11.43;77.01
47220;BME280;32961;51.936;4.788;2023-05-01T01:51:58;101647.66;;;11.38;77.05
47220;BME280;32961;51.936;4.788;2023-05-01T01:54:32;101641.16;;;11.30;77.29
47220;BME280;32961;51.936;4.788;2023-05-01T01:57:03;101638.81;;;11.25;77.56
47220;BME280;32961;51.936;4.788;2023-05-01T01:59:33;101637.34;;;11.21;77.49
47220;BME280;32961;51.936;4.788;2023-05-01T02:02:02;101626.84;;;11.16;77.75
47220;BME280;32961;51.936;4.788;2023-05-01T02:04:32;101639.19;;;11.20;78.03
47220;BME280;32961;51.936;4.788;2023-05-01T02:07:02;101636.47;;;11.20;77.68
47220;BME280;32961;51.936;4.788;2023-05-01T02:09:31;101628.31;;;11.20;77.89
47220;BME280;32961;51.936;4.788;2023-05-01T02:12:01;101620.06;;;11.11;78.20
47220;BME280;32961;51.936;4.788;2023-05-01T02:14:32;101617.81;;;11.16;78.39
47220;BME280;32961;51.936;4.788;2023-05-01T02:17:03;101621.66;;;11.13;78.89
47220;BME280;32961;51.936;4.788;2023-05-01T02:19:33;101614.28;;;11.04;79.55
47220;BME280;32961;51.936;4.788;2023-05-01T02:22:02;101619.88;;;11.02;79.51
47220;BME280;32961;51.936;4.788;2023-05-01T02:24:31;101617.00;;;11.04;79.61
47220;BME280;32961;51.936;4.788;2023-05-01T02:27:03;101615.28;;;11.03;79.23
47220;BME280;32961;51.936;4.788;2023-05-01T02:29:34;101616.25;;;11.02;79.20
47220;BME280;32961;51.936;4.788;2023-05-01T02:32:01;101605.53;;;11.00;79.13
47220;BME280;32961;51.936;4.788;2023-05-01T02:34:34;101610.59;;;11.05;78.98
47220;BME280;32961;51.936;4.788;2023-05-01T02:37:03;101614.91;;;11.07;78.66
47220;BME280;32961;51.936;4.788;2023-05-01T02:39:32;101593.38;;;11.04;78.81
47220;BME280;32961;51.936;4.788;2023-05-01T02:42:01;101597.84;;;11.05;78.50
47220;BME280;32961;51.936;4.788;2023-05-01T02:44:33;101600.56;;;11.05;78.46
47220;BME280;32961;51.936;4.788;2023-05-01T02:47:06;101593.38;;;11.04;78.39
47220;BME280;32961;51.936;4.788;2023-05-01T02:49:36;101598.56;;;11.07;78.69
47220;BME280;32961;51.936;4.788;2023-05-01T02:52:06;101589.94;;;11.02;78.62
47220;BME280;32961;51.936;4.788;2023-05-01T02:54:33;101589.44;;;11.08;78.48
47220;BME280;32961;51.936;4.788;2023-05-01T02:57:03;101590.28;;;11.09;78.38
47220;BME280;32961;51.936;4.788;2023-05-01T02:59:30;101586.56;;;11.10;78.58
47220;BME280;32961;51.936;4.788;2023-05-01T03:01:58;101580.66;;;11.05;78.58
47220;BME280;32961;51.936;4.788;2023-05-01T03:04:26;101575.09;;;11.06;79.08
47220;BME280;32961;51.936;4.788;2023-05-01T03:06:55;101584.38;;;11.04;79.36
47220;BME280;32961;51.936;4.788;2023-05-01T03:09:23;101576.47;;;11.01;79.73
47220;BME280;32961;51.936;4.788;2023-05-01T03:11:51;101574.47;;;11.03;79.90
47220;BME280;32961;51.936;4.788;2023-05-01T03:14:19;101574.47;;;11.03;80.16
47220;BME280;32961;51.936;4.788;2023-05-01T03:16:47;101576.59;;;10.99;80.19
47220;BME280;32961;51.936;4.788;2023-05-01T03:19:15;101575.00;;;10.97;80.23
47220;BME280;32961;51.936;4.788;2023-05-01T03:21:43;101572.41;;;10.95;80.42
47220;BME280;32961;51.936;4.788;2023-05-01T03:24:12;101565.50;;;10.91;80.56
47220;BME280;32961;51.936;4.788;2023-05-01T03:26:40;101561.78;;;10.92;80.47
47220;BME280;32961;51.936;4.788;2023-05-01T03:29:08;101563.53;;;10.93;80.64
47220;BME280;32961;51.936;4.788;2023-05-01T03:31:38;101556.50;;;10.90;80.69
47220;BME280;32961;51.936;4.788;2023-05-01T03:34:06;101554.91;;;10.88;80.68
47220;BME280;32961;51.936;4.788;2023-05-01T03:36:34;101548.56;;;10.87;80.29
47220;BME280;32961;51.936;4.788;2023-05-01T03:39:02;101547.59;;;10.88;81.08
47220;BME280;32961;51.936;4.788;2023-05-01T03:41:33;101543.88;;;10.89;81.05
47220;BME280;32961;51.936;4.788;2023-05-01T03:44:01;101540.31;;;10.89;80.89
47220;BME280;32961;51.936;4.788;2023-05-01T03:46:29;101540.03;;;10.92;80.82
47220;BME280;32961;51.936;4.788;2023-05-01T03:48:57;101536.56;;;10.90;80.60
47220;BME280;32961;51.936;4.788;2023-05-01T03:51:25;101531.13;;;10.90;80.61
47220;BME280;32961;51.936;4.788;2023-05-01T03:53:53;101528.56;;;10.88;80.47
47220;BME280;32961;51.936;4.788;2023-05-01T03:56:24;101529.44;;;10.89;80.16
47220;BME280;32961;51.936;4.788;2023-05-01T03:58:53;101534.75;;;10.90;79.90
47220;BME280;32961;51.936;4.788;2023-05-01T04:01:23;101526.81;;;10.87;80.00
47220;BME280;32961;51.936;4.788;2023-05-01T04:03:51;101526.97;;;10.86;80.16
47220;BME280;32961;51.936;4.788;2023-05-01T04:06:19;101525.59;;;10.91;79.77
47220;BME280;32961;51.936;4.788;2023-05-01T04:08:48;101523.72;;;10.92;79.73
47220;BME280;32961;51.936;4.788;2023-05-01T04:11:15;101529.16;;;10.92;79.72
47220;BME280;32961;51.936;4.788;2023-05-01T04:13:43;101527.19;;;10.94;79.51
47220;BME280;32961;51.936;4.788;2023-05-01T04:16:13;101518.03;;;10.95;79.68
47220;BME280;32961;51.936;4.788;2023-05-01T04:18:41;101521.75;;;10.94;79.04
47220;BME280;32961;51.936;4.788;2023-05-01T04:21:09;101518.88;;;10.96;79.02
47220;BME280;32961;51.936;4.788;2023-05-01T04:23:36;101518.75;;;10.97;79.06
47220;BME280;32961;51.936;4.788;2023-05-01T04:26:04;101519.50;;;10.99;79.14
47220;BME280;32961;51.936;4.788;2023-05-01T04:28:33;101519.25;;;11.02;79.43
47220;BME280;32961;51.936;4.788;2023-05-01T04:31:00;101520.25;;;11.01;79.37
47220;BME280;32961;51.936;4.788;2023-05-01T04:33:30;101509.59;;;10.98;78.89
47220;BME280;32961;51.936;4.788;2023-05-01T04:35:57;101505.44;;;10.94;78.42
47220;BME280;32961;51.936;4.788;2023-05-01T04:38:25;101508.41;;;10.91;77.91
47220;BME280;32961;51.936;4.788;2023-05-01T04:40:54;101515.72;;;10.90;77.46
47220;BME280;32961;51.936;4.788;2023-05-01T04:43:22;101512.09;;;10.90;76.82
47220;BME280;32961;51.936;4.788;2023-05-01T04:45:50;101508.69;;;10.88;76.19
47220;BME280;32961;51.936;4.788;2023-05-01T04:48:17;101507.69;;;10.89;75.43
47220;BME280;32961;51.936;4.788;2023-05-01T04:50:47;101496.72;;;10.79;75.16
47220;BME280;32961;51.936;4.788;2023-05-01T04:53:14;101521.88;;;10.93;74.50
47220;BME280;32961;51.936;4.788;2023-05-01T04:55:43;101512.59;;;10.95;74.72
47220;BME280;32961;51.936;4.788;2023-05-01T04:58:10;101515.78;;;11.00;74.33
47220;BME280;32961;51.936;4.788;2023-05-01T05:00:38;101509.34;;;11.01;73.93
47220;BME280;32961;51.936;4.788;2023-05-01T05:03:06;101520.94;;;11.03;74.35
47220;BME280;32961;51.936;4.788;2023-05-01T05:05:34;101512.69;;;11.05;75.00
47220;BME280;32961;51.936;4.788;2023-05-01T05:08:05;101517.25;;;11.04;76.51
47220;BME280;32961;51.936;4.788;2023-05-01T05:10:34;101511.19;;;11.01;77.59
47220;BME280;32961;51.936;4.788;2023-05-01T05:13:02;101508.16;;;10.94;78.92
47220;BME280;32961;51.936;4.788;2023-05-01T05:15:30;101507.69;;;10.89;80.02
47220;BME280;32961;51.936;4.788;2023-05-01T05:17:58;101515.09;;;10.87;80.28
47220;BME280;32961;51.936;4.788;2023-05-01T05:20:25;101508.59;;;10.78;81.07
47220;BME280;32961;51.936;4.788;2023-05-01T05:22:53;101508.47;;;10.80;81.30
47220;BME280;32961;51.936;4.788;2023-05-01T05:25:22;101500.31;;;10.80;81.30
47220;BME280;32961;51.936;4.788;2023-05-01T05:27:50;101503.25;;;10.76;81.10
47220;BME280;32961;51.936;4.788;2023-05-01T05:30:18;101500.81;;;10.73;81.17
47220;BME280;32961;51.936;4.788;2023-05-01T05:32:46;101501.06;;;10.70;81.81
47220;BME280;32961;51.936;4.788;2023-05-01T05:35:14;101500.06;;;10.71;81.61
47220;BME280;32961;51.936;4.788;2023-05-01T05:37:42;101495.63;;;10.70;81.37
47220;BME280;32961;51.936;4.788;2023-05-01T05:40:12;101497.81;;;10.76;81.06
47220;BME280;32961;51.936;4.788;2023-05-01T05:42:41;101505.00;;;10.78;80.89
47220;BME280;32961;51.936;4.788;2023-05-01T05:45:09;101502.16;;;10.79;80.73
47220;BME280;32961;51.936;4.788;2023-05-01T05:47:37;101504.75;;;10.81;80.63
47220;BME280;32961;51.936;4.788;2023-05-01T05:50:08;101507.59;;;10.79;81.01
47220;BME280;32961;51.936;4.788;2023-05-01T05:52:36;101494.88;;;10.80;80.82
47220;BME280;32961;51.936;4.788;2023-05-01T05:55:05;101506.72;;;10.79;81.32
47220;BME280;32961;51.936;4.788;2023-05-01T05:57:33;101503.03;;;10.80;81.43
47220;BME280;32961;51.936;4.788;2023-05-01T06:00:05;101505.59;;;10.81;81.70
47220;BME280;32961;51.936;4.788;2023-05-01T06:02:33;101507.31;;;10.82;82.31
47220;BME280;32961;51.936;4.788;2023-05-01T06:05:01;101502.78;;;10.83;82.48
47220;BME280;32961;51.936;4.788;2023-05-01T06:07:28;101507.31;;;10.82;82.18
47220;BME280;32961;51.936;4.788;2023-05-01T06:09:56;101498.19;;;10.83;82.77
47220;BME280;32961;51.936;4.788;2023-05-01T06:12:28;101496.69;;;10.90;82.79
47220;BME280;32961;51.936;4.788;2023-05-01T06:14:57;101499.53;;;10.89;82.74
47220;BME280;32961;51.936;4.788;2023-05-01T06:17:26;101501.72;;;10.95;82.37
47220;BME280;32961;51.936;4.788;2023-05-01T06:19:54;101490.09;;;10.93;81.79
47220;BME280;32961;51.936;4.788;2023-05-01T06:22:23;101497.88;;;10.98;81.39
47220;BME280;32961;51.936;4.788;2023-05-01T06:24:50;101503.78;;;11.03;81.05
47220;BME280;32961;51.936;4.788;2023-05-01T06:27:18;101498.81;;;11.08;80.52
47220;BME280;32961;51.936;4.788;2023-05-01T06:29:46;101506.44;;;11.14;80.32
47220;BME280;32961;51.936;4.788;2023-05-01T06:32:14;101505.06;;;11.20;80.03
47220;BME280;32961;51.936;4.788;2023-05-01T06:34:43;101497.63;;;11.22;78.81
47220;BME280;32961;51.936;4.788;2023-05-01T06:37:11;101497.50;;;11.23;78.07
47220;BME280;32961;51.936;4.788;2023-05-01T06:39:39;101510.56;;;11.30;77.56
47220;BME280;32961;51.936;4.788;2023-05-01T06:42:07;101503.00;;;11.33;76.85
47220;BME280;32961;51.936;4.788;2023-05-01T06:44:41;101510.47;;;11.41;75.67
47220;BME280;32961;51.936;4.788;2023-05-01T06:47:09;101501.47;;;11.40;75.59
47220;BME280;32961;51.936;4.788;2023-05-01T06:49:37;101510.69;;;11.49;75.77
47220;BME280;32961;51.936;4.788;2023-05-01T06:52:06;101508.28;;;11.56;75.77
47220;BME280;32961;51.936;4.788;2023-05-01T06:54:34;101509.47;;;11.63;75.39
47220;BME280;32961;51.936;4.788;2023-05-01T06:57:01;101511.38;;;11.72;75.39
47220;BME280;32961;51.936;4.788;2023-05-01T06:59:29;101506.38;;;11.78;75.04
47220;BME280;32961;51.936;4.788;2023-05-01T07:01:57;101497.81;;;11.82;74.64
47220;BME280;32961;51.936;4.788;2023-05-01T07:04:25;101504.56;;;11.88;74.07
47220;BME280;32961;51.936;4.788;2023-05-01T07:06:53;101510.34;;;11.95;73.76
47220;BME280;32961;51.936;4.788;2023-05-01T07:09:22;101506.63;;;11.96;73.77
47220;BME280;32961;51.936;4.788;2023-05-01T07:11:50;101502.06;;;11.96;73.81
47220;BME280;32961;51.936;4.788;2023-05-01T07:14:17;101504.22;;;12.02;73.66
47220;BME280;32961;51.936;4.788;2023-05-01T07:16:45;101503.06;;;12.05;74.00
47220;BME280;32961;51.936;4.788;2023-05-01T07:19:13;101507.38;;;12.08;73.61
47220;BME280;32961;51.936;4.788;2023-05-01T07:21:41;101508.84;;;12.12;73.67
47220;BME280;32961;51.936;4.788;2023-05-01T07:24:09;101504.00;;;12.15;74.13
47220;BME280;32961;51.936;4.788;2023-05-01T07:26:39;101511.75;;;12.20;73.13
47220;BME280;32961;51.936;4.788;2023-05-01T07:29:07;101499.38;;;12.16;72.43
47220;BME280;32961;51.936;4.788;2023-05-01T07:31:34;101508.47;;;12.26;71.63
47220;BME280;32961;51.936;4.788;2023-05-01T07:34:03;101509.47;;;12.25;70.81
47220;BME280;32961;51.936;4.788;2023-05-01T07:36:31;101510.16;;;12.27;70.96
47220;BME280;32961;51.936;4.788;2023-05-01T07:38:59;101510.63;;;12.32;70.54
47220;BME280;32961;51.936;4.788;2023-05-01T07:41:27;101497.00;;;12.32;69.73
47220;BME280;32961;51.936;4.788;2023-05-01T07:43:57;101509.19;;;12.38;70.36
47220;BME280;32961;51.936;4.788;2023-05-01T07:46:25;101508.50;;;12.46;69.87
47220;BME280;32961;51.936;4.788;2023-05-01T07:48:54;101506.66;;;12.56;69.73
47220;BME280;32961;51.936;4.788;2023-05-01T07:51:21;101502.34;;;12.63;69.03
47220;BME280;32961;51.936;4.788;2023-05-01T07:53:49;101509.66;;;12.73;69.27
47220;BME280;32961;51.936;4.788;2023-05-01T07:56:17;101510.81;;;12.80;69.11
47220;BME280;32961;51.936;4.788;2023-05-01T07:58:46;101516.59;;;12.87;68.58
47220;BME280;32961;51.936;4.788;2023-05-01T08:01:16;101516.84;;;12.93;68.45
47220;BME280;32961;51.936;4.788;2023-05-01T08:03:44;101506.69;;;12.95;67.69
47220;BME280;32961;51.936;4.788;2023-05-01T08:06:14;101507.97;;;12.91;67.38
47220;BME280;32961;51.936;4.788;2023-05-01T08:08:42;101501.94;;;12.97;68.26
47220;BME280;32961;51.936;4.788;2023-05-01T08:11:10;101506.94;;;13.02;67.26
47220;BME280;32961;51.936;4.788;2023-05-01T08:13:38;101501.66;;;13.00;67.13
47220;BME280;32961;51.936;4.788;2023-05-01T08:16:07;101498.50;;;13.05;67.97
47220;BME280;32961;51.936;4.788;2023-05-01T08:18:36;101490.16;;;13.07;67.55
47220;BME280;32961;51.936;4.788;2023-05-01T08:21:04;101501.22;;;13.15;67.46
47220;BME280;32961;51.936;4.788;2023-05-01T08:23:32;101505.22;;;13.21;67.72
47220;BME280;32961;51.936;4.788;2023-05-01T08:26:00;101506.50;;;13.26;67.77
47220;BME280;32961;51.936;4.788;2023-05-01T08:28:28;101503.91;;;13.35;67.81
47220;BME280;32961;51.936;4.788;2023-05-01T08:30:56;101493.72;;;13.37;67.82
47220;BME280;32961;51.936;4.788;2023-05-01T08:33:25;101504.19;;;13.51;67.56
47220;BME280;32961;51.936;4.788;2023-05-01T08:35:54;101482.31;;;13.61;67.78
47220;BME280;32961;51.936;4.788;2023-05-01T08:38:22;101476.00;;;13.60;67.29
47220;BME280;32961;51.936;4.788;2023-05-01T08:40:51;101490.91;;;13.76;67.39
47220;BME280;32961;51.936;4.788;2023-05-01T08:43:20;101489.75;;;13.78;66.94
47220;BME280;32961;51.936;4.788;2023-05-01T08:45:50;101489.56;;;13.80;67.07
47220;BME280;32961;51.936;4.788;2023-05-01T08:48:20;101501.47;;;13.89;66.95
47220;BME280;32961;51.936;4.788;2023-05-01T08:50:50;101502.19;;;13.91;66.59
47220;BME280;32961;51.936;4.788;2023-05-01T08:53:23;101513.84;;;13.93;66.61
47220;BME280;32961;51.936;4.788;2023-05-01T08:55:53;101510.22;;;13.92;66.79
47220;BME280;32961;51.936;4.788;2023-05-01T08:58:23;101517.28;;;13.85;68.26
47220;BME280;32961;51.936;4.788;2023-05-01T09:00:52;101517.63;;;13.82;68.84
47220;BME280;32961;51.936;4.788;2023-05-01T09:03:22;101513.31;;;13.79;68.71
47220;BME280;32961;51.936;4.788;2023-05-01T09:05:51;101523.75;;;13.84;68.80
47220;BME280;32961;51.936;4.788;2023-05-01T09:08:19;101518.19;;;13.86;68.85
47220;BME280;32961;51.936;4.788;2023-05-01T09:10:51;101518.88;;;13.88;69.06
47220;BME280;32961;51.936;4.788;2023-05-01T09:13:20;101536.13;;;13.88;70.22
47220;BME280;32961;51.936;4.788;2023-05-01T09:15:48;101539.16;;;13.85;70.69
47220;BME280;32961;51.936;4.788;2023-05-01T09:18:16;101544.34;;;13.78;70.77
47220;BME280;32961;51.936;4.788;2023-05-01T09:20:44;101531.00;;;13.66;71.85
47220;BME280;32961;51.936;4.788;2023-05-01T09:23:12;101539.94;;;13.68;71.90
47220;BME280;32961;51.936;4.788;2023-05-01T09:25:40;101541.22;;;13.73;72.35
47220;BME280;32961;51.936;4.788;2023-05-01T09:28:10;101536.91;;;13.61;71.58
47220;BME280;32961;51.936;4.788;2023-05-01T09:30:38;101539.78;;;13.69;72.11
47220;BME280;32961;51.936;4.788;2023-05-01T09:33:07;101537.34;;;13.76;72.48
47220;BME280;32961;51.936;4.788;2023-05-01T09:35:49;101540.91;;;13.76;71.61
47220;BME280;32961;51.936;4.788;2023-05-01T09:38:21;101538.75;;;13.80;72.01
47220;BME280;32961;51.936;4.788;2023-05-01T09:40:49;101534.41;;;13.87;70.96
47220;BME280;32961;51.936;4.788;2023-05-01T09:43:25;101541.81;;;14.05;70.75
47220;BME280;32961;51.936;4.788;2023-05-01T09:46:05;101541.47;;;14.18;70.65
47220;BME280;32961;51.936;4.788;2023-05-01T09:48:35;101538.38;;;14.31;70.84
47220;BME280;32961;51.936;4.788;2023-05-01T09:51:19;101544.50;;;14.42;71.03
47220;BME280;32961;51.936;4.788;2023-05-01T09:53:47;101549.75;;;14.54;69.99
47220;BME280;32961;51.936;4.788;2023-05-01T09:56:16;101548.03;;;14.53;69.99
47220;BME280;32961;51.936;4.788;2023-05-01T09:58:45;101557.16;;;14.71;68.84
47220;BME280;32961;51.936;4.788;2023-05-01T10:01:13;101549.38;;;14.76;68.49
47220;BME280;32961;51.936;4.788;2023-05-01T10:03:42;101552.31;;;14.83;67.29
47220;BME280;32961;51.936;4.788;2023-05-01T10:06:10;101550.31;;;14.85;66.69
47220;BME280;32961;51.936;4.788;2023-05-01T10:08:46;101548.50;;;14.76;65.63
47220;BME280;32961;51.936;4.788;2023-05-01T10:11:14;101557.78;;;14.83;66.47
47220;BME280;32961;51.936;4.788;2023-05-01T10:13:42;101559.22;;;14.87;66.85
47220;BME280;32961;51.936;4.788;2023-05-01T10:16:28;101554.78;;;14.86;67.52
47220;BME280;32961;51.936;4.788;2023-05-01T10:18:57;101558.97;;;14.81;68.38
47220;BME280;32961;51.936;4.788;2023-05-01T10:21:29;101558.59;;;14.75;68.41
47220;BME280;32961;51.936;4.788;2023-05-01T10:23:57;101557.09;;;14.81;68.97
47220;BME280;32961;51.936;4.788;2023-05-01T10:26:26;101568.66;;;14.75;68.94
47220;BME280;32961;51.936;4.788;2023-05-01T10:28:55;101578.19;;;14.71;69.43
47220;BME280;32961;51.936;4.788;2023-05-01T10:31:24;101566.94;;;14.74;69.50
47220;BME280;32961;51.936;4.788;2023-05-01T10:33:55;101566.97;;;14.64;70.45
47220;BME280;32961;51.936;4.788;2023-05-01T10:36:30;101563.44;;;14.54;71.01
47220;BME280;32961;51.936;4.788;2023-05-01T10:38:59;101567.22;;;14.43;72.56
47220;BME280;32961;51.936;4.788;2023-05-01T10:42:00;101567.16;;;14.35;72.80
47220;BME280;32961;51.936;4.788;2023-05-01T10:44:31;101574.69;;;14.23;73.75
47220;BME280;32961;51.936;4.788;2023-05-01T10:50:05;101577.41;;;14.23;75.35
47220;BME280;32961;51.936;4.788;2023-05-01T10:55:40;101586.09;;;14.08;76.96
47220;BME280;32961;51.936;4.788;2023-05-01T10:58:09;101593.84;;;14.13;77.10
47220;BME280;32961;51.936;4.788;2023-05-01T11:00:37;101565.59;;;13.94;77.58
47220;BME280;32961;51.936;4.788;2023-05-01T11:03:36;101589.56;;;14.01;78.58
47220;BME280;32961;51.936;4.788;2023-05-01T11:06:08;101574.78;;;13.93;78.96
47220;BME280;32961;51.936;4.788;2023-05-01T11:08:37;101573.97;;;13.83;80.23
47220;BME280;32961;51.936;4.788;2023-05-01T11:14:07;101566.81;;;13.72;82.38
47220;BME280;32961;51.936;4.788;2023-05-01T11:16:43;101577.00;;;13.70;83.35
47220;BME280;32961;51.936;4.788;2023-05-01T11:19:45;101572.28;;;13.62;83.95
47220;BME280;32961;51.936;4.788;2023-05-01T11:22:17;101571.00;;;13.57;84.49
47220;BME280;32961;51.936;4.788;2023-05-01T11:24:46;101565.56;;;13.47;84.21
47220;BME280;32961;51.936;4.788;2023-05-01T11:27:14;101568.25;;;13.57;83.55
47220;BME280;32961;51.936;4.788;2023-05-01T11:29:44;101560.78;;;13.59;83.78
47220;BME280;32961;51.936;4.788;2023-05-01T11:32:18;101563.38;;;13.60;84.84
47220;BME280;32961;51.936;4.788;2023-05-01T11:34:48;101563.97;;;13.44;86.50
47220;BME280;32961;51.936;4.788;2023-05-01T11:37:18;101559.09;;;13.48;86.22
47220;BME280;32961;51.936;4.788;2023-05-01T11:39:48;101565.41;;;13.48;87.25
47220;BME280;32961;51.936;4.788;2023-05-01T11:42:19;101567.84;;;13.52;86.94
47220;BME280;32961;51.936;4.788;2023-05-01T11:45:14;101540.00;;;13.38;87.94
47220;BME280;32961;51.936;4.788;2023-05-01T11:47:42;101562.06;;;13.55;88.23
47220;BME280;32961;51.936;4.788;2023-05-01T11:50:10;101569.09;;;13.67;87.58
47220;BME280;32961;51.936;4.788;2023-05-01T11:52:44;101573.28;;;13.71;88.17
47220;BME280;32961;51.936;4.788;2023-05-01T11:55:14;101573.53;;;13.78;87.69
47220;BME280;32961;51.936;4.788;2023-05-01T11:57:49;101569.38;;;13.74;87.12
47220;BME280;32961;51.936;4.788;2023-05-01T12:00:26;101566.94;;;13.71;87.15
47220;BME280;32961;51.936;4.788;2023-05-01T12:02:56;101566.34;;;13.77;86.78
47220;BME280;32961;51.936;4.788;2023-05-01T12:05:26;101571.94;;;13.85;86.40
47220;BME280;32961;51.936;4.788;2023-05-01T12:08:10;101573.06;;;13.92;85.62
47220;BME280;32961;51.936;4.788;2023-05-01T12:10:40;101572.78;;;13.95;85.54
47220;BME280;32961;51.936;4.788;2023-05-01T12:13:10;101576.50;;;13.94;85.96
47220;BME280;32961;51.936;4.788;2023-05-01T12:15:42;101577.38;;;13.95;86.17
47220;BME280;32961;51.936;4.788;2023-05-01T12:18:11;101558.41;;;13.93;85.56
47220;BME280;32961;51.936;4.788;2023-05-01T12:20:41;101577.78;;;14.00;86.79
47220;BME280;32961;51.936;4.788;2023-05-01T12:23:11;101573.59;;;14.06;87.04
47220;BME280;32961;51.936;4.788;2023-05-01T12:25:40;101581.19;;;14.12;84.95
47220;BME280;32961;51.936;4.788;2023-05-01T12:28:10;101570.53;;;14.19;84.51
47220;BME280;32961;51.936;4.788;2023-05-01T12:30:38;101576.97;;;14.27;86.15
47220;BME280;32961;51.936;4.788;2023-05-01T12:33:11;101579.66;;;14.37;85.38
47220;BME280;32961;51.936;4.788;2023-05-01T12:35:41;101574.69;;;14.51;85.36
47220;BME280;32961;51.936;4.788;2023-05-01T12:38:13;101573.16;;;14.66;84.34
47220;BME280;32961;51.936;4.788;2023-05-01T12:40:52;101560.88;;;14.80;82.54
47220;BME280;32961;51.936;4.788;2023-05-01T12:43:21;101571.31;;;14.85;81.28
47220;BME280;32961;51.936;4.788;2023-05-01T12:45:51;101577.34;;;15.06;82.10
47220;BME280;32961;51.936;4.788;2023-05-01T12:48:20;101570.72;;;15.27;78.95
47220;BME280;32961;51.936;4.788;2023-05-01T12:50:48;101573.56;;;15.44;79.30
47220;BME280;32961;51.936;4.788;2023-05-01T12:53:23;101580.44;;;15.66;77.51
47220;BME280;32961;51.936;4.788;2023-05-01T12:55:52;101574.56;;;15.61;77.40
47220;BME280;32961;51.936;4.788;2023-05-01T12:58:21;101570.50;;;15.65;77.48
47220;BME280;32961;51.936;4.788;2023-05-01T13:00:50;101575.47;;;15.69;76.24
47220;BME280;32961;51.936;4.788;2023-05-01T13:03:22;101576.19;;;15.71;76.52
47220;BME280;32961;51.936;4.788;2023-05-01T13:05:55;101571.25;;;15.75;75.95
47220;BME280;32961;51.936;4.788;2023-05-01T13:08:29;101573.75;;;15.86;72.87
47220;BME280;32961;51.936;4.788;2023-05-01T13:10:59;101571.28;;;16.01;71.69
47220;BME280;32961;51.936;4.788;2023-05-01T13:13:29;101580.72;;;16.07;69.07
47220;BME280;32961;51.936;4.788;2023-05-01T13:16:06;101576.66;;;16.11;71.24